createdAt,value
2017-12-10T00:00:16.008Z,20.30
2017-12-10T00:02:44.931Z,20.30
2017-12-10T00:05:12.865Z,20.30
2017-12-10T00:07:40.948Z,20.30
2017-12-10T00:10:09.721Z,20.30
2017-12-10T00:12:37.587Z,20.30
2017-12-10T00:15:05.658Z,20.30
2017-12-10T00:17:33.420Z,20.30
2017-12-10T00:20:01.107Z,20.30
2017-12-10T00:22:29.745Z,20.30
2017-12-10T00:24:57.737Z,20.20
2017-12-10T00:27:25.429Z,20.30
2017-12-10T00:29:53.881Z,20.30
2017-12-10T00:32:21.432Z,20.30
2017-12-10T00:34:48.930Z,20.30
2017-12-10T00:37:16.453Z,20.30
2017-12-10T00:39:44.209Z,20.30
2017-12-10T00:42:11.738Z,20.30
2017-12-10T00:44:40.467Z,20.30
2017-12-10T00:47:08.316Z,20.30
2017-12-10T00:49:37.000Z,20.30
2017-12-10T00:52:05.071Z,20.30
2017-12-10T00:54:33.243Z,20.30
2017-12-10T00:57:01.313Z,20.30
2017-12-10T00:59:29.281Z,20.30
2017-12-10T01:01:57.249Z,20.30
2017-12-10T01:04:25.115Z,20.30
2017-12-10T01:06:52.980Z,20.40
2017-12-10T01:09:21.050Z,20.40
2017-12-10T01:11:49.017Z,20.30
2017-12-10T01:14:17.088Z,20.40
2017-12-10T01:16:45.158Z,20.40
2017-12-10T01:19:13.125Z,20.40
2017-12-10T01:21:41.195Z,20.40
2017-12-10T01:24:10.291Z,20.40
2017-12-10T01:26:39.486Z,20.40
2017-12-10T01:29:07.556Z,20.40
2017-12-10T01:31:35.626Z,20.50
2017-12-10T01:34:03.799Z,20.50
2017-12-10T01:36:31.564Z,20.50
2017-12-10T01:38:59.530Z,20.50
2017-12-10T01:41:27.445Z,20.50
2017-12-10T01:43:56.285Z,20.50
2017-12-10T01:46:24.354Z,20.50
2017-12-10T01:48:52.527Z,20.50
2017-12-10T01:51:21.211Z,20.50
2017-12-10T01:53:48.714Z,20.50
2017-12-10T01:56:18.177Z,20.50
2017-12-10T01:58:45.670Z,20.50
2017-12-10T02:01:13.193Z,20.50
2017-12-10T02:03:40.718Z,20.50
2017-12-10T02:06:08.982Z,20.50
2017-12-10T02:08:37.273Z,20.50
2017-12-10T02:11:04.769Z,20.50
2017-12-10T02:13:32.281Z,20.50
2017-12-10T02:16:00.542Z,20.50
2017-12-10T02:18:30.761Z,20.50
2017-12-10T02:20:59.037Z,20.50
2017-12-10T02:23:29.321Z,20.50
2017-12-10T02:25:56.825Z,20.50
2017-12-10T02:28:25.090Z,20.50
2017-12-10T02:30:53.387Z,20.50
2017-12-10T02:33:20.900Z,20.50
2017-12-10T02:35:48.388Z,20.50
2017-12-10T02:38:16.671Z,20.50
2017-12-10T02:40:44.174Z,20.50
2017-12-10T02:43:11.744Z,20.50
2017-12-10T02:45:39.230Z,20.50
2017-12-10T02:48:07.521Z,20.50
2017-12-10T02:50:35.017Z,20.50
2017-12-10T02:53:02.537Z,20.50
2017-12-10T02:55:37.906Z,20.50
2017-12-10T02:58:05.429Z,20.50
2017-12-10T03:00:32.929Z,20.50
2017-12-10T03:03:00.449Z,20.50
2017-12-10T03:05:27.941Z,20.50
2017-12-10T03:07:55.465Z,20.50
2017-12-10T03:10:23.921Z,20.50
2017-12-10T03:12:52.178Z,20.50
2017-12-10T03:15:19.699Z,20.50
2017-12-10T03:17:47.196Z,20.50
2017-12-10T03:20:14.729Z,20.50
2017-12-10T03:22:42.245Z,20.50
2017-12-10T03:25:09.734Z,20.50
2017-12-10T03:27:37.221Z,20.50
2017-12-10T03:30:04.746Z,20.50
2017-12-10T03:32:32.236Z,20.60
2017-12-10T03:35:00.501Z,20.60
2017-12-10T03:37:28.030Z,20.50
2017-12-10T03:39:55.529Z,20.60
2017-12-10T03:42:23.789Z,20.60
2017-12-10T03:44:51.308Z,20.60
2017-12-10T03:47:18.796Z,20.60
2017-12-10T03:49:47.256Z,20.50
2017-12-10T03:52:14.773Z,20.60
2017-12-10T03:54:43.037Z,20.60
2017-12-10T03:57:10.537Z,20.60
2017-12-10T03:59:38.057Z,20.50
2017-12-10T04:02:06.323Z,20.50
2017-12-10T04:04:36.561Z,20.50
2017-12-10T04:07:04.821Z,20.50
2017-12-10T04:09:33.072Z,20.50
2017-12-10T04:12:00.593Z,20.50
2017-12-10T04:14:28.097Z,20.50
2017-12-10T04:16:55.598Z,20.50
2017-12-10T04:19:23.108Z,20.50
2017-12-10T04:21:50.609Z,20.50
2017-12-10T04:24:18.124Z,20.50
2017-12-10T04:26:46.557Z,20.50
2017-12-10T04:29:14.049Z,20.50
2017-12-10T04:31:41.567Z,20.50
2017-12-10T04:34:09.061Z,20.50
2017-12-10T04:36:36.590Z,20.50
2017-12-10T04:39:04.086Z,20.50
2017-12-10T04:41:31.580Z,20.60
2017-12-10T04:43:59.093Z,20.60
2017-12-10T04:46:26.597Z,20.60
2017-12-10T04:48:54.125Z,20.60
2017-12-10T04:51:22.393Z,20.60
2017-12-10T04:53:49.880Z,20.60
2017-12-10T04:56:17.402Z,20.60
2017-12-10T04:58:44.893Z,20.60
2017-12-10T05:01:12.409Z,20.60
2017-12-10T05:03:39.926Z,20.60
2017-12-10T05:06:08.369Z,20.60
2017-12-10T05:08:36.658Z,20.60
2017-12-10T05:11:04.912Z,20.60
2017-12-10T05:13:32.406Z,20.60
2017-12-10T05:15:59.929Z,20.60
2017-12-10T05:18:28.193Z,20.60
2017-12-10T05:20:55.695Z,20.50
2017-12-10T05:23:23.209Z,20.50
2017-12-10T05:25:51.464Z,20.60
2017-12-10T05:28:18.956Z,20.50
2017-12-10T05:30:48.216Z,20.60
2017-12-10T05:33:15.709Z,20.60
2017-12-10T05:35:43.993Z,20.50
2017-12-10T05:38:11.494Z,20.50
2017-12-10T05:40:39.014Z,20.50
2017-12-10T05:43:06.514Z,20.50
2017-12-10T05:45:34.009Z,20.50
2017-12-10T05:48:02.297Z,20.50
2017-12-10T05:50:29.795Z,20.50
2017-12-10T05:52:57.318Z,20.50
2017-12-10T05:55:24.813Z,20.50
2017-12-10T05:57:52.329Z,20.50
2017-12-10T06:00:19.821Z,20.50
2017-12-10T06:02:47.313Z,20.50
2017-12-10T06:05:15.602Z,20.60
2017-12-10T06:07:43.869Z,20.60
2017-12-10T06:10:12.130Z,20.60
2017-12-10T06:12:39.681Z,20.60
2017-12-10T06:15:07.177Z,20.50
2017-12-10T06:17:35.457Z,20.50
2017-12-10T06:20:02.953Z,20.50
2017-12-10T06:22:30.453Z,20.50
2017-12-10T06:24:58.730Z,20.50
2017-12-10T06:27:26.989Z,20.50
2017-12-10T06:29:55.277Z,20.50
2017-12-10T06:32:23.541Z,20.50
2017-12-10T06:34:51.804Z,20.50
2017-12-10T06:37:19.319Z,20.50
2017-12-10T06:39:46.821Z,20.50
2017-12-10T06:42:14.345Z,20.50
2017-12-10T06:44:41.838Z,20.50
2017-12-10T06:47:09.328Z,20.50
2017-12-10T06:49:38.854Z,20.50
2017-12-10T06:52:06.345Z,20.50
2017-12-10T06:54:33.869Z,20.50
2017-12-10T06:57:01.394Z,20.50
2017-12-10T06:59:29.658Z,20.50
2017-12-10T07:01:57.937Z,20.50
2017-12-10T07:04:26.196Z,20.50
2017-12-10T07:06:53.712Z,20.50
2017-12-10T07:09:21.206Z,20.50
2017-12-10T07:11:48.725Z,20.50
2017-12-10T07:14:16.222Z,20.50
2017-12-10T07:16:43.722Z,20.50
2017-12-10T07:19:11.245Z,20.50
2017-12-10T07:21:39.501Z,20.50
2017-12-10T07:24:07.009Z,20.50
2017-12-10T07:26:34.501Z,20.50
2017-12-10T07:29:02.018Z,20.50
2017-12-10T07:31:30.494Z,20.50
2017-12-10T07:33:58.004Z,20.50
2017-12-10T07:36:25.497Z,20.50
2017-12-10T07:38:53.758Z,20.50
2017-12-10T07:41:22.040Z,20.50
2017-12-10T07:43:50.302Z,20.50
2017-12-10T07:46:18.584Z,20.50
2017-12-10T07:48:46.848Z,20.40
2017-12-10T07:51:14.341Z,20.50
2017-12-10T07:53:41.853Z,20.50
2017-12-10T07:56:09.344Z,20.50
2017-12-10T07:58:37.628Z,20.50
2017-12-10T08:01:06.075Z,20.50
2017-12-10T08:03:34.366Z,20.40
2017-12-10T08:06:02.637Z,20.50
2017-12-10T08:08:30.897Z,20.40
2017-12-10T08:10:58.413Z,20.40
2017-12-10T08:13:25.911Z,20.40
2017-12-10T08:15:53.433Z,20.40
2017-12-10T08:18:20.933Z,20.40
2017-12-10T08:20:49.397Z,20.40
2017-12-10T08:23:16.922Z,20.40
2017-12-10T08:25:44.417Z,20.40
2017-12-10T08:28:11.939Z,20.40
2017-12-10T08:30:39.438Z,20.40
2017-12-10T08:33:07.045Z,20.40
2017-12-10T08:35:34.561Z,20.40
2017-12-10T08:38:02.821Z,20.40
2017-12-10T08:40:30.342Z,20.40
2017-12-10T08:42:57.841Z,20.40
2017-12-10T08:45:26.869Z,20.40
2017-12-10T08:47:54.362Z,20.40
2017-12-10T08:50:21.886Z,20.40
2017-12-10T08:52:49.418Z,20.40
2017-12-10T08:55:17.681Z,20.40
2017-12-10T08:57:45.945Z,20.40
2017-12-10T09:00:15.405Z,20.40
2017-12-10T09:02:42.897Z,20.40
2017-12-10T09:05:10.438Z,20.40
2017-12-10T09:07:37.960Z,20.40
2017-12-10T09:10:05.509Z,20.40
2017-12-10T09:12:34.041Z,20.40
2017-12-10T09:15:01.591Z,20.50
2017-12-10T09:17:29.088Z,20.50
2017-12-10T09:19:57.404Z,20.50
2017-12-10T09:22:24.927Z,20.50
2017-12-10T09:24:53.214Z,20.50
2017-12-10T09:27:21.527Z,20.50
2017-12-10T09:29:49.041Z,20.50
2017-12-10T09:32:17.324Z,20.50
2017-12-10T09:34:45.581Z,20.50
2017-12-10T09:37:13.861Z,20.50
2017-12-10T09:39:44.125Z,20.50
2017-12-10T09:42:11.617Z,20.50
2017-12-10T09:44:39.133Z,20.50
2017-12-10T09:47:06.629Z,20.50
2017-12-10T09:49:36.092Z,20.50
2017-12-10T09:52:03.585Z,20.40
2017-12-10T09:54:31.111Z,20.50
2017-12-10T09:56:58.629Z,20.40
2017-12-10T09:59:26.902Z,20.40
2017-12-10T10:01:55.185Z,20.40
2017-12-10T10:04:23.464Z,20.40
2017-12-10T10:06:51.750Z,20.40
2017-12-10T10:09:19.254Z,20.40
2017-12-10T10:11:46.776Z,20.40
2017-12-10T10:14:14.294Z,20.40
2017-12-10T10:16:42.553Z,20.30
2017-12-10T10:19:10.156Z,20.30
2017-12-10T10:21:37.697Z,20.40
2017-12-10T10:24:05.978Z,20.30
2017-12-10T10:26:33.498Z,20.30
2017-12-10T10:29:01.010Z,20.30
2017-12-10T10:31:28.505Z,20.30
2017-12-10T10:33:57.967Z,20.30
2017-12-10T10:36:25.481Z,20.30
2017-12-10T10:38:53.874Z,20.30
2017-12-10T10:41:23.189Z,20.30
2017-12-10T10:43:51.074Z,20.30
2017-12-10T10:46:19.860Z,20.30
2017-12-10T10:48:47.726Z,20.30
2017-12-10T10:51:15.386Z,20.30
2017-12-10T10:53:44.325Z,20.30
2017-12-10T10:56:13.369Z,20.30
2017-12-10T10:58:41.139Z,20.30
2017-12-10T11:01:08.845Z,20.30
2017-12-10T11:03:38.325Z,20.30
2017-12-10T11:06:06.653Z,20.30
2017-12-10T11:08:34.194Z,20.30
2017-12-10T11:11:02.453Z,20.30
2017-12-10T11:13:29.977Z,20.30
2017-12-10T11:15:57.468Z,20.30
2017-12-10T11:18:24.997Z,20.30
2017-12-10T11:20:52.535Z,20.30
2017-12-10T11:23:20.053Z,20.30
2017-12-10T11:25:47.553Z,20.30
2017-12-10T11:28:15.083Z,20.30
2017-12-10T11:30:43.350Z,20.30
2017-12-10T11:33:11.661Z,20.40
2017-12-10T11:35:39.164Z,20.40
2017-12-10T11:38:06.666Z,20.40
2017-12-10T11:40:34.201Z,20.30
2017-12-10T11:43:02.466Z,20.30
2017-12-10T11:45:31.794Z,20.30
2017-12-10T11:47:59.325Z,20.30
2017-12-10T11:50:27.597Z,20.40
2017-12-10T11:52:55.889Z,20.40
2017-12-10T11:55:25.102Z,20.40
2017-12-10T11:57:52.634Z,20.40
2017-12-10T12:00:20.910Z,20.30
2017-12-10T12:02:49.205Z,20.30
2017-12-10T12:05:16.709Z,20.30
2017-12-10T12:07:44.233Z,20.30
2017-12-10T12:10:11.734Z,20.30
2017-12-10T12:12:39.236Z,20.20
2017-12-10T12:15:06.757Z,20.20
2017-12-10T12:17:35.022Z,20.20
2017-12-10T12:20:02.557Z,20.20
2017-12-10T12:22:30.066Z,20.20
2017-12-10T12:24:57.597Z,20.10
2017-12-10T12:27:25.158Z,20.10
2017-12-10T12:29:53.451Z,20.10
2017-12-10T12:32:21.722Z,20.10
2017-12-10T12:34:50.036Z,20.10
2017-12-10T12:37:17.556Z,20.10
2017-12-10T12:39:45.852Z,20.10
2017-12-10T12:42:13.358Z,20.10
2017-12-10T12:44:40.884Z,20.10
2017-12-10T12:47:08.401Z,20.10
2017-12-10T12:49:36.693Z,20.10
2017-12-10T12:52:04.198Z,20.10
2017-12-10T12:54:31.730Z,20.10
2017-12-10T12:56:59.243Z,20.10
2017-12-10T12:59:27.533Z,20.10
2017-12-10T13:01:55.052Z,20.00
2017-12-10T13:04:24.527Z,20.10
2017-12-10T13:06:52.057Z,20.10
2017-12-10T13:09:19.602Z,20.10
2017-12-10T13:11:47.872Z,20.00
2017-12-10T13:14:16.153Z,20.10
2017-12-10T13:16:44.426Z,20.10
2017-12-10T13:19:12.722Z,20.00
2017-12-10T13:21:40.221Z,20.00
2017-12-10T13:24:07.770Z,20.00
2017-12-10T13:26:35.273Z,20.00
2017-12-10T13:29:03.552Z,20.00
2017-12-10T13:31:31.826Z,20.00
2017-12-10T13:34:00.125Z,20.00
2017-12-10T13:36:27.625Z,20.00
2017-12-10T13:38:55.919Z,20.00
2017-12-10T13:41:24.189Z,20.00
2017-12-10T13:43:52.478Z,20.00
2017-12-10T13:46:20.745Z,20.00
2017-12-10T13:48:49.037Z,20.00
2017-12-10T13:51:17.306Z,20.00
2017-12-10T13:53:45.592Z,20.00
2017-12-10T13:56:13.094Z,20.00
2017-12-10T13:58:40.613Z,20.00
2017-12-10T14:01:09.069Z,19.90
2017-12-10T14:03:37.354Z,19.90
2017-12-10T14:06:05.632Z,19.90
2017-12-10T14:08:34.100Z,19.90
2017-12-10T14:11:02.394Z,19.90
2017-12-10T14:13:30.321Z,19.90
2017-12-10T14:15:57.845Z,19.90
2017-12-10T14:18:25.360Z,19.90
2017-12-10T14:20:53.663Z,19.90
2017-12-10T14:23:21.166Z,19.90
2017-12-10T14:25:48.690Z,19.90
2017-12-10T14:28:16.193Z,19.90
2017-12-10T14:30:43.719Z,19.90
2017-12-10T14:33:11.228Z,19.90
2017-12-10T14:35:38.763Z,19.90
2017-12-10T14:38:06.269Z,19.90
2017-12-10T14:40:33.788Z,19.90
2017-12-10T14:43:02.613Z,19.90
2017-12-10T14:45:30.137Z,19.90
2017-12-10T14:47:58.401Z,19.90
2017-12-10T14:50:26.688Z,19.90
2017-12-10T14:52:54.957Z,19.80
2017-12-10T14:55:23.237Z,19.80
2017-12-10T14:57:51.500Z,19.80
2017-12-10T15:00:19.026Z,19.80
2017-12-10T15:02:46.522Z,19.80
2017-12-10T15:05:14.820Z,19.80
2017-12-10T15:07:42.335Z,19.80
2017-12-10T15:10:09.858Z,19.80
2017-12-10T15:12:37.349Z,19.80
2017-12-10T15:15:04.870Z,19.80
2017-12-10T15:17:32.378Z,19.80
2017-12-10T15:20:01.774Z,19.80
2017-12-10T15:22:29.278Z,19.80
2017-12-10T15:24:56.800Z,19.80
2017-12-10T15:27:25.065Z,19.80
2017-12-10T15:29:52.593Z,19.80
2017-12-10T15:32:20.090Z,19.80
2017-12-10T15:34:48.386Z,19.80
2017-12-10T15:37:16.846Z,19.80
2017-12-10T15:39:45.129Z,19.80
2017-12-10T15:42:12.626Z,19.80
2017-12-10T15:44:40.146Z,19.80
2017-12-10T15:47:07.641Z,19.70
2017-12-10T15:49:35.165Z,19.70
2017-12-10T15:52:02.665Z,19.70
2017-12-10T15:54:30.180Z,19.70
2017-12-10T15:56:57.669Z,19.70
2017-12-10T15:59:25.181Z,19.70
2017-12-10T16:01:53.445Z,19.70
2017-12-10T16:04:21.726Z,19.70
2017-12-10T16:06:50.005Z,19.70
2017-12-10T16:09:19.525Z,19.70
2017-12-10T16:11:47.162Z,19.70
2017-12-10T16:14:15.461Z,19.70
2017-12-10T16:16:42.962Z,19.70
2017-12-10T16:19:10.483Z,19.60
2017-12-10T16:21:37.977Z,19.60
2017-12-10T16:24:05.498Z,19.70
2017-12-10T16:26:33.092Z,19.70
2017-12-10T16:29:00.618Z,19.60
2017-12-10T16:31:29.065Z,19.60
2017-12-10T16:33:57.349Z,19.70
2017-12-10T16:36:24.837Z,19.70
2017-12-10T16:38:52.352Z,19.70
2017-12-10T16:41:20.617Z,19.60
2017-12-10T16:43:48.901Z,19.60
2017-12-10T16:46:17.168Z,19.70
2017-12-10T16:48:45.464Z,19.60
2017-12-10T16:51:12.977Z,19.60
2017-12-10T16:53:40.489Z,19.60
2017-12-10T16:56:08.022Z,19.70
2017-12-10T16:58:36.309Z,19.60
2017-12-10T17:01:03.819Z,19.60
2017-12-10T17:03:31.346Z,19.60
2017-12-10T17:05:58.846Z,19.60
2017-12-10T17:08:26.374Z,19.60
2017-12-10T17:10:53.889Z,19.60
2017-12-10T17:13:22.173Z,19.60
2017-12-10T17:15:49.664Z,19.60
2017-12-10T17:18:17.185Z,19.60
2017-12-10T17:20:44.681Z,19.50
2017-12-10T17:23:12.202Z,19.50
2017-12-10T17:25:39.705Z,19.50
2017-12-10T17:28:07.221Z,19.50
2017-12-10T17:30:35.688Z,19.50
2017-12-10T17:33:03.216Z,19.50
2017-12-10T17:35:30.713Z,19.50
2017-12-10T17:37:58.233Z,19.50
2017-12-10T17:40:25.725Z,19.50
2017-12-10T17:42:55.233Z,19.50
2017-12-10T17:45:22.729Z,19.50
2017-12-10T17:47:50.241Z,19.50
2017-12-10T17:50:17.737Z,19.50
2017-12-10T17:52:45.257Z,19.50
2017-12-10T17:55:12.753Z,19.50
2017-12-10T17:57:40.277Z,19.50
2017-12-10T18:00:07.769Z,19.50
2017-12-10T18:02:35.298Z,19.50
2017-12-10T18:05:02.795Z,19.50
2017-12-10T18:07:32.261Z,19.50
2017-12-10T18:09:59.752Z,19.50
2017-12-10T18:12:27.281Z,19.50
2017-12-10T18:14:54.777Z,19.50
2017-12-10T18:17:22.312Z,19.50
2017-12-10T18:19:49.818Z,19.40
2017-12-10T18:22:20.045Z,19.50
2017-12-10T18:24:47.567Z,19.50
2017-12-10T18:27:15.090Z,19.50
2017-12-10T18:29:42.585Z,19.50
2017-12-10T18:32:10.113Z,19.50
2017-12-10T18:34:38.566Z,19.40
2017-12-10T18:37:06.082Z,19.50
2017-12-10T18:39:34.345Z,19.50
2017-12-10T18:42:01.846Z,19.50
2017-12-10T18:44:29.405Z,19.50
2017-12-10T18:46:56.910Z,19.50
2017-12-10T18:49:24.432Z,19.50
2017-12-10T18:51:51.929Z,19.50
2017-12-10T18:54:19.421Z,19.60
2017-12-10T18:56:47.708Z,19.60
2017-12-10T18:59:15.210Z,19.60
2017-12-10T19:01:42.714Z,19.60
2017-12-10T19:04:10.271Z,19.60
2017-12-10T19:06:38.591Z,19.50
2017-12-10T19:09:07.225Z,19.50
2017-12-10T19:11:34.772Z,19.50
2017-12-10T19:14:03.109Z,19.50
2017-12-10T19:16:30.672Z,19.50
2017-12-10T19:18:58.205Z,19.50
2017-12-10T19:21:25.704Z,19.50
2017-12-10T19:23:53.227Z,19.50
2017-12-10T19:26:20.726Z,19.50
2017-12-10T19:28:48.366Z,19.50
2017-12-10T19:31:15.968Z,19.50
2017-12-10T19:33:44.883Z,19.50
2017-12-10T19:36:12.462Z,19.50
2017-12-10T19:38:39.957Z,19.50
2017-12-10T19:41:09.156Z,19.50
2017-12-10T19:43:37.446Z,19.50
2017-12-10T19:46:05.713Z,19.40
2017-12-10T19:48:34.001Z,19.40
2017-12-10T19:51:01.497Z,19.40
2017-12-10T19:53:29.017Z,19.40
2017-12-10T19:55:56.509Z,19.50
2017-12-10T19:58:24.020Z,19.40
2017-12-10T20:00:52.285Z,19.40
2017-12-10T20:03:21.509Z,19.50
2017-12-10T20:05:49.858Z,19.50
2017-12-10T20:08:18.126Z,19.50
2017-12-10T20:10:45.641Z,19.50
2017-12-10T20:13:13.141Z,19.40
2017-12-10T20:15:41.413Z,19.50
2017-12-10T20:18:08.937Z,19.50
2017-12-10T20:20:36.436Z,19.50
2017-12-10T20:23:04.721Z,19.40
2017-12-10T20:25:33.009Z,19.50
2017-12-10T20:28:00.533Z,19.40
2017-12-10T20:30:28.797Z,19.40
2017-12-10T20:32:56.360Z,19.40
2017-12-10T20:35:23.882Z,19.50
2017-12-10T20:37:51.386Z,19.50
2017-12-10T20:40:19.670Z,19.50
2017-12-10T20:42:47.933Z,19.40
2017-12-10T20:45:15.429Z,19.40
2017-12-10T20:47:42.945Z,19.40
2017-12-10T20:50:10.468Z,19.50
2017-12-10T20:52:37.973Z,19.40
2017-12-10T20:55:06.257Z,19.40
2017-12-10T20:57:34.518Z,19.40
2017-12-10T21:00:02.801Z,19.50
2017-12-10T21:02:31.066Z,19.50
2017-12-10T21:04:59.353Z,19.50
2017-12-10T21:07:27.655Z,19.50
2017-12-10T21:09:55.154Z,19.50
2017-12-10T21:12:24.189Z,19.60
2017-12-10T21:14:51.680Z,19.60
2017-12-10T21:17:19.185Z,19.60
2017-12-10T21:19:47.468Z,19.60
2017-12-10T21:22:15.734Z,19.50
2017-12-10T21:24:44.013Z,19.50
2017-12-10T21:27:11.521Z,19.50
2017-12-10T21:29:39.954Z,19.50
2017-12-10T21:32:08.254Z,19.50
2017-12-10T21:34:35.745Z,19.50
2017-12-10T21:37:03.272Z,19.40
2017-12-10T21:39:30.801Z,19.50
2017-12-10T21:41:59.072Z,19.50
2017-12-10T21:44:27.356Z,19.50
2017-12-10T21:46:54.877Z,19.50
2017-12-10T21:49:22.369Z,19.50
2017-12-10T21:51:49.893Z,19.50
2017-12-10T21:54:17.392Z,19.50
2017-12-10T21:56:44.956Z,19.50
2017-12-10T21:59:12.453Z,19.50
2017-12-10T22:01:39.970Z,19.50
2017-12-10T22:04:07.471Z,19.50
2017-12-10T22:06:34.997Z,19.50
2017-12-10T22:09:02.557Z,19.50
2017-12-10T22:11:30.085Z,19.50
2017-12-10T22:13:57.597Z,19.50
2017-12-10T22:16:25.108Z,19.50
2017-12-10T22:18:52.610Z,19.60
2017-12-10T22:21:20.134Z,19.60
2017-12-10T22:23:47.652Z,19.60
2017-12-10T22:26:15.936Z,19.60
2017-12-10T22:28:44.197Z,19.60
2017-12-10T22:31:12.498Z,19.60
2017-12-10T22:33:39.997Z,19.60
2017-12-10T22:36:09.457Z,19.60
2017-12-10T22:38:36.961Z,19.60
2017-12-10T22:41:04.477Z,19.60
2017-12-10T22:43:32.925Z,19.60
2017-12-10T22:46:01.221Z,19.70
2017-12-10T22:48:28.726Z,19.70
2017-12-10T22:50:56.252Z,19.70
2017-12-10T22:53:23.753Z,19.70
2017-12-10T22:55:51.253Z,19.70
2017-12-10T22:58:20.777Z,19.70
2017-12-10T23:00:48.308Z,19.70
2017-12-10T23:03:15.852Z,19.70
2017-12-10T23:05:44.194Z,19.70
2017-12-10T23:08:11.734Z,19.70
2017-12-10T23:10:41.638Z,19.70
2017-12-10T23:13:10.475Z,19.70
2017-12-10T23:15:40.012Z,19.70
2017-12-10T23:18:07.534Z,19.70
2017-12-10T23:20:35.031Z,19.70
2017-12-10T23:23:02.557Z,19.80
2017-12-10T23:25:30.820Z,19.80
2017-12-10T23:27:59.122Z,19.80
2017-12-10T23:30:27.400Z,19.80
2017-12-10T23:32:55.666Z,19.80
2017-12-10T23:35:25.923Z,19.80
2017-12-10T23:37:53.428Z,19.80
2017-12-10T23:40:20.953Z,19.80
2017-12-10T23:42:48.453Z,19.90
2017-12-10T23:45:18.719Z,19.90
2017-12-10T23:47:46.221Z,19.90
2017-12-10T23:50:13.738Z,19.90
2017-12-10T23:52:42.173Z,19.90
2017-12-10T23:55:10.463Z,19.90
2017-12-10T23:57:37.961Z,19.90
